sensor_id;sensor_type;location;lat;lon;timestamp;P1;durP1;ratioP1;P2;durP2;ratioP2
14369;SDS011;7268;50.792;0.252;2022-08-11T00:01:50;4.55;;;1.20;;
14369;SDS011;7268;50.792;0.252;2022-08-11T00:04:18;5.63;;;1.50;;
14369;SDS011;7268;50.792;0.252;2022-08-11T00:06:47;2.83;;;1.30;;
14369;SDS011;7268;50.792;0.252;2022-08-11T00:09:19;5.28;;;1.20;;
14369;SDS011;7268;50.792;0.252;2022-08-11T00:16:52;6.60;;;1.40;;
14369;SDS011;7268;50.792;0.252;2022-08-11T00:19:21;4.00;;;1.10;;
14369;SDS011;7268;50.792;0.252;2022-08-11T00:22:09;6.10;;;1.20;;
14369;SDS011;7268;50.792;0.252;2022-08-11T00:24:37;7.80;;;1.40;;
14369;SDS011;7268;50.792;0.252;2022-08-11T00:27:34;7.68;;;1.88;;
14369;SDS011;7268;50.792;0.252;2022-08-11T00:30:03;2.47;;;1.20;;
14369;SDS011;7268;50.792;0.252;2022-08-11T00:32:30;4.68;;;1.67;;
14369;SDS011;7268;50.792;0.252;2022-08-11T00:34:58;3.22;;;1.40;;
14369;SDS011;7268;50.792;0.252;2022-08-11T00:37:47;1.98;;;1.20;;
14369;SDS011;7268;50.792;0.252;2022-08-11T00:40:17;10.30;;;2.35;;
14369;SDS011;7268;50.792;0.252;2022-08-11T00:43:12;3.90;;;1.30;;
14369;SDS011;7268;50.792;0.252;2022-08-11T00:46:03;4.03;;;1.30;;
14369;SDS011;7268;50.792;0.252;2022-08-11T00:56:43;6.43;;;1.42;;
14369;SDS011;7268;50.792;0.252;2022-08-11T01:20:08;7.78;;;1.60;;
14369;SDS011;7268;50.792;0.252;2022-08-11T01:28:47;7.43;;;1.55;;
14369;SDS011;7268;50.792;0.252;2022-08-11T01:50:36;3.00;;;1.65;;
14369;SDS011;7268;50.792;0.252;2022-08-11T01:53:11;4.95;;;1.73;;
14369;SDS011;7268;50.792;0.252;2022-08-11T02:01:13;6.53;;;2.65;;
14369;SDS011;7268;50.792;0.252;2022-08-11T02:03:55;3.70;;;1.67;;
14369;SDS011;7268;50.792;0.252;2022-08-11T02:06:38;3.95;;;1.85;;
14369;SDS011;7268;50.792;0.252;2022-08-11T02:15:11;5.40;;;2.00;;
14369;SDS011;7268;50.792;0.252;2022-08-11T02:20:24;4.97;;;2.08;;
14369;SDS011;7268;50.792;0.252;2022-08-11T02:23:20;6.63;;;2.15;;
14369;SDS011;7268;50.792;0.252;2022-08-11T02:42:31;9.82;;;2.25;;
14369;SDS011;7268;50.792;0.252;2022-08-11T02:47:54;7.13;;;1.73;;
14369;SDS011;7268;50.792;0.252;2022-08-11T02:50:51;8.20;;;2.28;;
14369;SDS011;7268;50.792;0.252;2022-08-11T02:53:26;5.32;;;1.88;;
14369;SDS011;7268;50.792;0.252;2022-08-11T03:03:46;8.63;;;2.78;;
14369;SDS011;7268;50.792;0.252;2022-08-11T03:12:02;4.70;;;1.67;;
14369;SDS011;7268;50.792;0.252;2022-08-11T03:20:14;8.70;;;2.67;;
14369;SDS011;7268;50.792;0.252;2022-08-11T03:25:28;10.07;;;2.58;;
14369;SDS011;7268;50.792;0.252;2022-08-11T03:27:59;16.17;;;2.63;;
14369;SDS011;7268;50.792;0.252;2022-08-11T03:30:42;6.25;;;2.45;;
14369;SDS011;7268;50.792;0.252;2022-08-11T03:33:20;9.05;;;2.72;;
14369;SDS011;7268;50.792;0.252;2022-08-11T03:36:19;5.90;;;2.45;;
14369;SDS011;7268;50.792;0.252;2022-08-11T03:41:28;4.30;;;2.35;;
14369;SDS011;7268;50.792;0.252;2022-08-11T03:52:52;6.55;;;2.78;;
14369;SDS011;7268;50.792;0.252;2022-08-11T03:55:49;11.50;;;3.13;;
14369;SDS011;7268;50.792;0.252;2022-08-11T04:01:06;11.40;;;2.65;;
14369;SDS011;7268;50.792;0.252;2022-08-11T04:34:34;13.95;;;3.35;;
14369;SDS011;7268;50.792;0.252;2022-08-11T04:51:13;13.65;;;3.83;;
14369;SDS011;7268;50.792;0.252;2022-08-11T04:54:13;11.68;;;3.15;;
14369;SDS011;7268;50.792;0.252;2022-08-11T04:57:08;12.60;;;3.58;;
14369;SDS011;7268;50.792;0.252;2022-08-11T05:00:03;7.93;;;3.50;;
14369;SDS011;7268;50.792;0.252;2022-08-11T05:13:45;9.13;;;3.80;;
14369;SDS011;7268;50.792;0.252;2022-08-11T05:16:34;10.25;;;4.20;;
14369;SDS011;7268;50.792;0.252;2022-08-11T05:19:25;10.88;;;4.13;;
14369;SDS011;7268;50.792;0.252;2022-08-11T05:22:12;12.43;;;4.40;;
14369;SDS011;7268;50.792;0.252;2022-08-11T05:28:11;9.88;;;3.15;;
14369;SDS011;7268;50.792;0.252;2022-08-11T05:30:59;10.93;;;3.75;;
14369;SDS011;7268;50.792;0.252;2022-08-11T05:33:46;12.02;;;4.15;;
14369;SDS011;7268;50.792;0.252;2022-08-11T05:36:39;16.67;;;4.55;;
14369;SDS011;7268;50.792;0.252;2022-08-11T05:39:12;10.95;;;3.90;;
14369;SDS011;7268;50.792;0.252;2022-08-11T05:42:03;17.48;;;3.88;;
14369;SDS011;7268;50.792;0.252;2022-08-11T05:44:58;7.78;;;3.67;;
14369;SDS011;7268;50.792;0.252;2022-08-11T05:47:49;23.33;;;4.13;;
14369;SDS011;7268;50.792;0.252;2022-08-11T05:50:35;7.45;;;3.60;;
14369;SDS011;7268;50.792;0.252;2022-08-11T05:53:22;11.18;;;3.15;;
14369;SDS011;7268;50.792;0.252;2022-08-11T05:56:11;11.73;;;3.55;;
14369;SDS011;7268;50.792;0.252;2022-08-11T05:58:48;12.73;;;2.72;;
14369;SDS011;7268;50.792;0.252;2022-08-11T06:01:23;9.00;;;2.08;;
14369;SDS011;7268;50.792;0.252;2022-08-11T06:03:51;10.68;;;2.33;;
14369;SDS011;7268;50.792;0.252;2022-08-11T06:06:38;5.07;;;2.25;;
14369;SDS011;7268;50.792;0.252;2022-08-11T06:09:10;7.13;;;2.00;;
14369;SDS011;7268;50.792;0.252;2022-08-11T06:11:40;8.95;;;2.42;;
14369;SDS011;7268;50.792;0.252;2022-08-11T06:14:10;9.07;;;2.47;;
14369;SDS011;7268;50.792;0.252;2022-08-11T06:16:39;10.43;;;1.95;;
14369;SDS011;7268;50.792;0.252;2022-08-11T06:19:07;7.47;;;2.13;;
14369;SDS011;7268;50.792;0.252;2022-08-11T06:21:34;7.30;;;2.13;;
14369;SDS011;7268;50.792;0.252;2022-08-11T06:24:03;5.03;;;2.15;;
14369;SDS011;7268;50.792;0.252;2022-08-11T06:26:31;8.20;;;1.98;;
14369;SDS011;7268;50.792;0.252;2022-08-11T06:29:18;9.23;;;2.20;;
14369;SDS011;7268;50.792;0.252;2022-08-11T06:32:03;7.80;;;2.17;;
14369;SDS011;7268;50.792;0.252;2022-08-11T06:45:06;3.90;;;2.15;;
14369;SDS011;7268;50.792;0.252;2022-08-11T06:47:40;7.45;;;1.92;;
14369;SDS011;7268;50.792;0.252;2022-08-11T06:50:08;14.23;;;2.67;;
14369;SDS011;7268;50.792;0.252;2022-08-11T06:52:54;6.13;;;2.05;;
14369;SDS011;7268;50.792;0.252;2022-08-11T06:55:22;6.65;;;1.83;;
14369;SDS011;7268;50.792;0.252;2022-08-11T06:58:25;8.50;;;1.90;;
14369;SDS011;7268;50.792;0.252;2022-08-11T07:01:12;10.45;;;1.98;;
14369;SDS011;7268;50.792;0.252;2022-08-11T07:03:44;5.97;;;2.17;;
14369;SDS011;7268;50.792;0.252;2022-08-11T07:14:57;7.13;;;2.40;;
14369;SDS011;7268;50.792;0.252;2022-08-11T07:17:49;2.40;;;1.50;;
14369;SDS011;7268;50.792;0.252;2022-08-11T07:20:37;5.72;;;2.13;;
14369;SDS011;7268;50.792;0.252;2022-08-11T07:23:28;4.05;;;1.45;;
14369;SDS011;7268;50.792;0.252;2022-08-11T07:26:18;9.05;;;2.03;;
14369;SDS011;7268;50.792;0.252;2022-08-11T07:29:06;10.45;;;1.95;;
14369;SDS011;7268;50.792;0.252;2022-08-11T07:31:37;5.60;;;1.70;;
14369;SDS011;7268;50.792;0.252;2022-08-11T07:34:14;8.63;;;1.80;;
14369;SDS011;7268;50.792;0.252;2022-08-11T07:37:08;4.55;;;1.67;;
14369;SDS011;7268;50.792;0.252;2022-08-11T07:39:31;10.93;;;1.40;;
14369;SDS011;7268;50.792;0.252;2022-08-11T07:42:03;5.20;;;1.73;;
14369;SDS011;7268;50.792;0.252;2022-08-11T07:44:31;6.75;;;1.80;;
14369;SDS011;7268;50.792;0.252;2022-08-11T07:47:18;11.38;;;2.00;;
14369;SDS011;7268;50.792;0.252;2022-08-11T07:50:06;9.38;;;1.90;;
14369;SDS011;7268;50.792;0.252;2022-08-11T07:52:53;5.78;;;1.60;;
14369;SDS011;7268;50.792;0.252;2022-08-11T07:55:21;5.68;;;1.67;;
14369;SDS011;7268;50.792;0.252;2022-08-11T07:58:13;6.63;;;1.63;;
14369;SDS011;7268;50.792;0.252;2022-08-11T08:01:11;5.30;;;1.67;;
14369;SDS011;7268;50.792;0.252;2022-08-11T08:04:03;7.32;;;1.58;;
14369;SDS011;7268;50.792;0.252;2022-08-11T08:06:50;9.63;;;1.48;;
14369;SDS011;7268;50.792;0.252;2022-08-11T08:09:36;4.63;;;1.33;;
14369;SDS011;7268;50.792;0.252;2022-08-11T08:12:23;4.63;;;1.30;;
14369;SDS011;7268;50.792;0.252;2022-08-11T08:15:11;4.45;;;1.30;;
14369;SDS011;7268;50.792;0.252;2022-08-11T08:17:58;11.48;;;1.30;;
14369;SDS011;7268;50.792;0.252;2022-08-11T08:20:47;5.15;;;1.33;;
14369;SDS011;7268;50.792;0.252;2022-08-11T08:23:16;4.88;;;1.30;;
14369;SDS011;7268;50.792;0.252;2022-08-11T08:25:43;6.43;;;1.50;;
14369;SDS011;7268;50.792;0.252;2022-08-11T08:28:13;5.70;;;1.70;;
14369;SDS011;7268;50.792;0.252;2022-08-11T08:30:41;3.72;;;1.30;;
14369;SDS011;7268;50.792;0.252;2022-08-11T08:35:54;3.17;;;1.38;;
14369;SDS011;7268;50.792;0.252;2022-08-11T08:38:40;3.70;;;1.10;;
14369;SDS011;7268;50.792;0.252;2022-08-11T08:41:08;6.28;;;1.20;;
14369;SDS011;7268;50.792;0.252;2022-08-11T08:43:42;4.38;;;1.50;;
14369;SDS011;7268;50.792;0.252;2022-08-11T08:46:14;3.33;;;1.20;;
14369;SDS011;7268;50.792;0.252;2022-08-11T08:48:43;2.45;;;1.20;;
14369;SDS011;7268;50.792;0.252;2022-08-11T08:51:12;5.28;;;1.30;;
14369;SDS011;7268;50.792;0.252;2022-08-11T08:54:20;6.05;;;1.20;;
14369;SDS011;7268;50.792;0.252;2022-08-11T08:56:51;4.97;;;1.17;;
14369;SDS011;7268;50.792;0.252;2022-08-11T08:59:21;2.53;;;1.15;;
14369;SDS011;7268;50.792;0.252;2022-08-11T09:01:52;6.63;;;1.23;;
14369;SDS011;7268;50.792;0.252;2022-08-11T09:04:19;5.25;;;1.27;;
14369;SDS011;7268;50.792;0.252;2022-08-11T09:06:47;5.40;;;1.20;;
14369;SDS011;7268;50.792;0.252;2022-08-11T09:09:17;3.63;;;1.23;;
14369;SDS011;7268;50.792;0.252;2022-08-11T09:11:46;4.53;;;1.50;;
14369;SDS011;7268;50.792;0.252;2022-08-11T09:14:22;4.57;;;1.20;;
14369;SDS011;7268;50.792;0.252;2022-08-11T09:16:50;6.88;;;1.40;;
14369;SDS011;7268;50.792;0.252;2022-08-11T09:19:19;4.03;;;1.20;;
14369;SDS011;7268;50.792;0.252;2022-08-11T09:21:49;3.55;;;1.20;;
14369;SDS011;7268;50.792;0.252;2022-08-11T09:24:36;2.85;;;1.20;;
14369;SDS011;7268;50.792;0.252;2022-08-11T09:27:23;3.63;;;1.20;;
14369;SDS011;7268;50.792;0.252;2022-08-11T09:29:52;2.33;;;1.50;;
14369;SDS011;7268;50.792;0.252;2022-08-11T09:32:20;4.00;;;1.50;;
14369;SDS011;7268;50.792;0.252;2022-08-11T09:34:48;3.40;;;1.33;;
14369;SDS011;7268;50.792;0.252;2022-08-11T09:37:18;4.57;;;1.20;;
14369;SDS011;7268;50.792;0.252;2022-08-11T09:40:21;1.67;;;1.20;;
14369;SDS011;7268;50.792;0.252;2022-08-11T09:43:05;4.53;;;1.30;;
14369;SDS011;7268;50.792;0.252;2022-08-11T09:45:52;3.78;;;1.02;;
14369;SDS011;7268;50.792;0.252;2022-08-11T09:48:21;6.93;;;1.20;;
14369;SDS011;7268;50.792;0.252;2022-08-11T09:50:50;1.88;;;1.10;;
14369;SDS011;7268;50.792;0.252;2022-08-11T09:53:18;4.82;;;1.17;;
14369;SDS011;7268;50.792;0.252;2022-08-11T09:56:06;2.03;;;1.10;;
14369;SDS011;7268;50.792;0.252;2022-08-11T09:58:55;2.80;;;1.05;;
14369;SDS011;7268;50.792;0.252;2022-08-11T10:01:23;2.95;;;1.10;;
14369;SDS011;7268;50.792;0.252;2022-08-11T10:04:04;4.43;;;1.23;;
14369;SDS011;7268;50.792;0.252;2022-08-11T10:06:35;3.67;;;1.65;;
14369;SDS011;7268;50.792;0.252;2022-08-11T10:09:23;5.32;;;1.40;;
14369;SDS011;7268;50.792;0.252;2022-08-11T10:11:57;3.95;;;1.60;;
14369;SDS011;7268;50.792;0.252;2022-08-11T10:14:25;9.10;;;1.70;;
14369;SDS011;7268;50.792;0.252;2022-08-11T10:17:12;7.75;;;2.08;;
14369;SDS011;7268;50.792;0.252;2022-08-11T10:19:41;6.07;;;1.92;;
14369;SDS011;7268;50.792;0.252;2022-08-11T10:22:29;6.65;;;2.17;;
14369;SDS011;7268;50.792;0.252;2022-08-11T10:25:15;4.90;;;2.05;;
14369;SDS011;7268;50.792;0.252;2022-08-11T10:28:02;7.35;;;2.28;;
14369;SDS011;7268;50.792;0.252;2022-08-11T10:30:50;8.60;;;2.67;;
14369;SDS011;7268;50.792;0.252;2022-08-11T10:33:39;5.25;;;2.30;;
14369;SDS011;7268;50.792;0.252;2022-08-11T10:36:29;6.18;;;2.03;;
14369;SDS011;7268;50.792;0.252;2022-08-11T10:38:57;6.75;;;2.63;;
14369;SDS011;7268;50.792;0.252;2022-08-11T10:41:25;7.93;;;2.88;;
14369;SDS011;7268;50.792;0.252;2022-08-11T10:44:42;10.23;;;2.75;;
14369;SDS011;7268;50.792;0.252;2022-08-11T10:47:10;12.65;;;2.58;;
14369;SDS011;7268;50.792;0.252;2022-08-11T10:49:57;6.43;;;3.10;;
14369;SDS011;7268;50.792;0.252;2022-08-11T10:52:45;8.25;;;2.72;;
14369;SDS011;7268;50.792;0.252;2022-08-11T10:55:33;8.10;;;2.53;;
14369;SDS011;7268;50.792;0.252;2022-08-11T10:58:23;9.33;;;2.60;;
14369;SDS011;7268;50.792;0.252;2022-08-11T11:01:10;10.05;;;2.53;;
14369;SDS011;7268;50.792;0.252;2022-08-11T11:03:38;5.97;;;1.98;;
14369;SDS011;7268;50.792;0.252;2022-08-11T11:06:49;7.38;;;1.77;;
14369;SDS011;7268;50.792;0.252;2022-08-11T11:09:02;6.85;;;1.80;;
14369;SDS011;7268;50.792;0.252;2022-08-11T11:11:37;7.53;;;1.80;;
14369;SDS011;7268;50.792;0.252;2022-08-11T11:14:26;5.68;;;1.67;;
14369;SDS011;7268;50.792;0.252;2022-08-11T11:17:25;4.13;;;1.70;;
14369;SDS011;7268;50.792;0.252;2022-08-11T11:20:12;7.90;;;1.50;;
14369;SDS011;7268;50.792;0.252;2022-08-11T11:23:48;6.18;;;1.50;;
14369;SDS011;7268;50.792;0.252;2022-08-11T11:25:55;7.25;;;1.75;;
14369;SDS011;7268;50.792;0.252;2022-08-11T11:37:00;4.72;;;1.50;;
14369;SDS011;7268;50.792;0.252;2022-08-11T11:39:29;3.97;;;1.20;;
14369;SDS011;7268;50.792;0.252;2022-08-11T11:41:58;6.72;;;1.38;;
14369;SDS011;7268;50.792;0.252;2022-08-11T11:44:26;2.10;;;1.10;;
14369;SDS011;7268;50.792;0.252;2022-08-11T11:46:54;4.32;;;1.20;;
14369;SDS011;7268;50.792;0.252;2022-08-11T11:49:22;4.65;;;1.10;;
14369;SDS011;7268;50.792;0.252;2022-08-11T11:51:50;3.10;;;1.40;;
14369;SDS011;7268;50.792;0.252;2022-08-11T11:54:20;3.63;;;1.20;;
14369;SDS011;7268;50.792;0.252;2022-08-11T11:56:49;3.53;;;1.25;;
14369;SDS011;7268;50.792;0.252;2022-08-11T11:59:21;2.42;;;1.17;;
14369;SDS011;7268;50.792;0.252;2022-08-11T12:02:08;6.68;;;1.20;;
14369;SDS011;7268;50.792;0.252;2022-08-11T12:04:39;1.95;;;0.90;;
14369;SDS011;7268;50.792;0.252;2022-08-11T12:07:08;2.95;;;0.82;;
14369;SDS011;7268;50.792;0.252;2022-08-11T12:09:55;6.70;;;1.00;;
14369;SDS011;7268;50.792;0.252;2022-08-11T12:12:23;8.98;;;1.02;;
14369;SDS011;7268;50.792;0.252;2022-08-11T12:15:10;2.47;;;0.90;;
14369;SDS011;7268;50.792;0.252;2022-08-11T12:17:38;4.50;;;1.02;;
14369;SDS011;7268;50.792;0.252;2022-08-11T12:20:06;9.18;;;1.30;;
14369;SDS011;7268;50.792;0.252;2022-08-11T12:22:54;2.60;;;1.27;;
14369;SDS011;7268;50.792;0.252;2022-08-11T12:25:41;1.33;;;0.90;;
14369;SDS011;7268;50.792;0.252;2022-08-11T12:28:47;5.28;;;0.90;;
14369;SDS011;7268;50.792;0.252;2022-08-11T12:31:15;1.55;;;0.73;;
14369;SDS011;7268;50.792;0.252;2022-08-11T12:33:43;2.75;;;0.98;;
14369;SDS011;7268;50.792;0.252;2022-08-11T12:36:12;4.20;;;1.02;;
14369;SDS011;7268;50.792;0.252;2022-08-11T12:38:43;2.22;;;1.17;;
14369;SDS011;7268;50.792;0.252;2022-08-11T12:41:17;4.35;;;0.90;;
14369;SDS011;7268;50.792;0.252;2022-08-11T12:44:04;6.13;;;1.00;;
14369;SDS011;7268;50.792;0.252;2022-08-11T12:46:51;2.28;;;0.90;;
14369;SDS011;7268;50.792;0.252;2022-08-11T12:49:19;5.20;;;0.90;;
14369;SDS011;7268;50.792;0.252;2022-08-11T12:52:18;6.70;;;1.10;;
14369;SDS011;7268;50.792;0.252;2022-08-11T13:00:17;2.50;;;0.90;;
14369;SDS011;7268;50.792;0.252;2022-08-11T13:03:04;1.58;;;0.90;;
14369;SDS011;7268;50.792;0.252;2022-08-11T13:05:52;8.10;;;0.90;;
14369;SDS011;7268;50.792;0.252;2022-08-11T13:08:21;2.33;;;1.02;;
14369;SDS011;7268;50.792;0.252;2022-08-11T13:10:50;3.08;;;0.85;;
14369;SDS011;7268;50.792;0.252;2022-08-11T13:13:37;4.78;;;1.02;;
14369;SDS011;7268;50.792;0.252;2022-08-11T13:16:26;1.85;;;0.77;;
14369;SDS011;7268;50.792;0.252;2022-08-11T13:18:56;2.83;;;0.90;;
14369;SDS011;7268;50.792;0.252;2022-08-11T13:21:24;2.30;;;0.80;;
14369;SDS011;7268;50.792;0.252;2022-08-11T13:23:52;2.40;;;1.08;;
14369;SDS011;7268;50.792;0.252;2022-08-11T13:26:29;2.88;;;0.95;;
14369;SDS011;7268;50.792;0.252;2022-08-11T13:29:18;5.05;;;1.20;;
14369;SDS011;7268;50.792;0.252;2022-08-11T13:31:46;7.10;;;1.08;;
14369;SDS011;7268;50.792;0.252;2022-08-11T13:34:15;1.35;;;0.93;;
14369;SDS011;7268;50.792;0.252;2022-08-11T13:36:43;1.50;;;0.90;;
14369;SDS011;7268;50.792;0.252;2022-08-11T13:39:11;4.88;;;1.00;;
14369;SDS011;7268;50.792;0.252;2022-08-11T13:41:40;6.28;;;0.80;;
14369;SDS011;7268;50.792;0.252;2022-08-11T13:44:10;0.93;;;0.70;;
14369;SDS011;7268;50.792;0.252;2022-08-11T13:46:43;3.53;;;1.05;;
14369;SDS011;7268;50.792;0.252;2022-08-11T13:49:14;6.78;;;1.00;;
14369;SDS011;7268;50.792;0.252;2022-08-11T13:51:42;2.28;;;1.05;;
14369;SDS011;7268;50.792;0.252;2022-08-11T13:56:37;4.63;;;1.00;;
14369;SDS011;7268;50.792;0.252;2022-08-11T13:59:06;4.45;;;1.00;;
14369;SDS011;7268;50.792;0.252;2022-08-11T14:01:36;1.70;;;1.00;;
14369;SDS011;7268;50.792;0.252;2022-08-11T14:04:27;2.95;;;1.02;;
14369;SDS011;7268;50.792;0.252;2022-08-11T14:06:57;2.70;;;1.00;;
14369;SDS011;7268;50.792;0.252;2022-08-11T14:09:27;4.15;;;1.30;;
14369;SDS011;7268;50.792;0.252;2022-08-11T14:11:56;2.38;;;1.10;;
14369;SDS011;7268;50.792;0.252;2022-08-11T14:14:51;6.22;;;1.50;;
14369;SDS011;7268;50.792;0.252;2022-08-11T14:17:22;2.85;;;1.20;;
14369;SDS011;7268;50.792;0.252;2022-08-11T14:20:10;2.15;;;1.20;;
14369;SDS011;7268;50.792;0.252;2022-08-11T14:22:58;3.38;;;1.30;;
14369;SDS011;7268;50.792;0.252;2022-08-11T14:25:26;2.63;;;1.20;;
14369;SDS011;7268;50.792;0.252;2022-08-11T14:28:13;5.13;;;1.25;;
14369;SDS011;7268;50.792;0.252;2022-08-11T14:30:58;3.83;;;1.38;;
14369;SDS011;7268;50.792;0.252;2022-08-11T14:33:27;6.35;;;1.42;;
14369;SDS011;7268;50.792;0.252;2022-08-11T14:36:16;1.80;;;1.05;;
14369;SDS011;7268;50.792;0.252;2022-08-11T14:38:44;1.58;;;1.10;;
14369;SDS011;7268;50.792;0.252;2022-08-11T14:41:11;5.25;;;1.25;;
14369;SDS011;7268;50.792;0.252;2022-08-11T14:43:57;2.95;;;1.17;;
14369;SDS011;7268;50.792;0.252;2022-08-11T14:46:44;1.52;;;1.10;;
14369;SDS011;7268;50.792;0.252;2022-08-11T14:49:50;4.53;;;1.10;;
14369;SDS011;7268;50.792;0.252;2022-08-11T14:52:37;5.75;;;1.27;;
14369;SDS011;7268;50.792;0.252;2022-08-11T14:55:05;2.25;;;1.20;;
14369;SDS011;7268;50.792;0.252;2022-08-11T14:57:52;4.20;;;1.10;;
14369;SDS011;7268;50.792;0.252;2022-08-11T15:00:22;5.07;;;1.27;;
14369;SDS011;7268;50.792;0.252;2022-08-11T15:02:50;2.53;;;1.15;;
14369;SDS011;7268;50.792;0.252;2022-08-11T15:08:06;6.80;;;1.63;;
14369;SDS011;7268;50.792;0.252;2022-08-11T15:10:34;6.15;;;1.75;;
14369;SDS011;7268;50.792;0.252;2022-08-11T15:13:01;3.97;;;1.30;;
14369;SDS011;7268;50.792;0.252;2022-08-11T15:15:29;5.03;;;1.42;;
14369;SDS011;7268;50.792;0.252;2022-08-11T15:18:16;2.50;;;1.50;;
14369;SDS011;7268;50.792;0.252;2022-08-11T15:20:45;3.13;;;1.55;;
14369;SDS011;7268;50.792;0.252;2022-08-11T15:23:31;3.47;;;1.30;;
14369;SDS011;7268;50.792;0.252;2022-08-11T15:26:18;3.00;;;1.20;;
14369;SDS011;7268;50.792;0.252;2022-08-11T15:29:13;5.95;;;1.35;;
14369;SDS011;7268;50.792;0.252;2022-08-11T15:32:00;4.10;;;1.15;;
14369;SDS011;7268;50.792;0.252;2022-08-11T15:34:50;2.45;;;1.30;;
14369;SDS011;7268;50.792;0.252;2022-08-11T15:37:38;8.15;;;1.65;;
14369;SDS011;7268;50.792;0.252;2022-08-11T15:40:27;6.15;;;1.50;;
14369;SDS011;7268;50.792;0.252;2022-08-11T15:43:18;3.28;;;1.42;;
14369;SDS011;7268;50.792;0.252;2022-08-11T15:46:13;2.85;;;1.35;;
14369;SDS011;7268;50.792;0.252;2022-08-11T15:49:06;4.40;;;1.38;;
14369;SDS011;7268;50.792;0.252;2022-08-11T15:54:04;5.78;;;1.67;;
14369;SDS011;7268;50.792;0.252;2022-08-11T15:56:35;1.88;;;1.20;;
14369;SDS011;7268;50.792;0.252;2022-08-11T15:59:04;8.65;;;1.77;;
14369;SDS011;7268;50.792;0.252;2022-08-11T16:02:09;5.95;;;1.40;;
14369;SDS011;7268;50.792;0.252;2022-08-11T16:04:57;5.53;;;1.23;;
14369;SDS011;7268;50.792;0.252;2022-08-11T16:07:26;9.77;;;1.98;;
14369;SDS011;7268;50.792;0.252;2022-08-11T16:09:59;2.80;;;1.30;;
14369;SDS011;7268;50.792;0.252;2022-08-11T16:12:35;6.35;;;1.30;;
14369;SDS011;7268;50.792;0.252;2022-08-11T16:15:04;3.55;;;1.20;;
14369;SDS011;7268;50.792;0.252;2022-08-11T16:17:52;3.83;;;1.40;;
14369;SDS011;7268;50.792;0.252;2022-08-11T16:20:22;3.33;;;1.20;;
14369;SDS011;7268;50.792;0.252;2022-08-11T16:22:51;7.07;;;1.33;;
14369;SDS011;7268;50.792;0.252;2022-08-11T16:25:28;4.28;;;1.60;;
14369;SDS011;7268;50.792;0.252;2022-08-11T16:28:15;2.00;;;1.33;;
14369;SDS011;7268;50.792;0.252;2022-08-11T16:30:45;7.05;;;1.80;;
14369;SDS011;7268;50.792;0.252;2022-08-11T16:33:13;9.95;;;2.40;;
14369;SDS011;7268;50.792;0.252;2022-08-11T16:36:02;7.25;;;1.75;;
14369;SDS011;7268;50.792;0.252;2022-08-11T16:38:48;4.03;;;1.30;;
14369;SDS011;7268;50.792;0.252;2022-08-11T16:41:17;5.28;;;1.67;;
14369;SDS011;7268;50.792;0.252;2022-08-11T16:44:05;2.85;;;1.20;;
14369;SDS011;7268;50.792;0.252;2022-08-11T16:47:04;3.80;;;1.15;;
14369;SDS011;7268;50.792;0.252;2022-08-11T16:49:33;3.42;;;1.45;;
14369;SDS011;7268;50.792;0.252;2022-08-11T16:52:01;4.68;;;1.40;;
14369;SDS011;7268;50.792;0.252;2022-08-11T16:54:33;3.30;;;1.35;;
14369;SDS011;7268;50.792;0.252;2022-08-11T16:57:03;4.35;;;1.75;;
14369;SDS011;7268;50.792;0.252;2022-08-11T16:59:50;2.75;;;1.40;;
14369;SDS011;7268;50.792;0.252;2022-08-11T17:02:24;2.63;;;1.33;;
14369;SDS011;7268;50.792;0.252;2022-08-11T17:05:16;5.28;;;1.38;;
14369;SDS011;7268;50.792;0.252;2022-08-11T17:08:25;6.18;;;1.20;;
14369;SDS011;7268;50.792;0.252;2022-08-11T17:11:24;3.72;;;1.02;;
14369;SDS011;7268;50.792;0.252;2022-08-11T17:14:12;5.50;;;1.67;;
14369;SDS011;7268;50.792;0.252;2022-08-11T17:16:41;4.25;;;1.20;;
14369;SDS011;7268;50.792;0.252;2022-08-11T17:19:10;9.32;;;1.50;;
14369;SDS011;7268;50.792;0.252;2022-08-11T17:21:44;5.35;;;1.20;;
14369;SDS011;7268;50.792;0.252;2022-08-11T17:24:32;4.32;;;1.25;;
14369;SDS011;7268;50.792;0.252;2022-08-11T17:27:00;2.42;;;1.35;;
14369;SDS011;7268;50.792;0.252;2022-08-11T17:29:32;6.20;;;1.10;;
14369;SDS011;7268;50.792;0.252;2022-08-11T17:32:24;3.65;;;1.25;;
14369;SDS011;7268;50.792;0.252;2022-08-11T17:35:27;3.58;;;1.33;;
14369;SDS011;7268;50.792;0.252;2022-08-11T17:38:09;5.38;;;1.30;;
14369;SDS011;7268;50.792;0.252;2022-08-11T17:40:38;6.18;;;1.45;;
14369;SDS011;7268;50.792;0.252;2022-08-11T17:43:26;6.03;;;1.30;;
14369;SDS011;7268;50.792;0.252;2022-08-11T17:46:14;7.80;;;1.30;;
14369;SDS011;7268;50.792;0.252;2022-08-11T17:49:00;5.32;;;1.85;;
14369;SDS011;7268;50.792;0.252;2022-08-11T17:51:28;4.40;;;1.25;;
14369;SDS011;7268;50.792;0.252;2022-08-11T17:54:26;2.40;;;1.33;;
14369;SDS011;7268;50.792;0.252;2022-08-11T17:57:12;9.98;;;1.50;;
14369;SDS011;7268;50.792;0.252;2022-08-11T17:59:59;5.78;;;1.30;;
14369;SDS011;7268;50.792;0.252;2022-08-11T18:05:18;8.65;;;1.58;;
14369;SDS011;7268;50.792;0.252;2022-08-11T18:07:47;5.18;;;1.40;;
14369;SDS011;7268;50.792;0.252;2022-08-11T18:10:34;9.52;;;1.65;;
14369;SDS011;7268;50.792;0.252;2022-08-11T18:13:22;3.65;;;1.63;;
14369;SDS011;7268;50.792;0.252;2022-08-11T18:16:09;5.72;;;1.17;;
14369;SDS011;7268;50.792;0.252;2022-08-11T18:18:55;6.28;;;1.30;;
14369;SDS011;7268;50.792;0.252;2022-08-11T18:21:41;6.38;;;1.45;;
14369;SDS011;7268;50.792;0.252;2022-08-11T18:24:46;5.43;;;1.55;;
14369;SDS011;7268;50.792;0.252;2022-08-11T18:27:33;1.98;;;1.23;;
14369;SDS011;7268;50.792;0.252;2022-08-11T18:30:20;9.32;;;1.45;;
14369;SDS011;7268;50.792;0.252;2022-08-11T18:33:07;3.88;;;1.50;;
14369;SDS011;7268;50.792;0.252;2022-08-11T18:36:16;5.65;;;1.40;;
14369;SDS011;7268;50.792;0.252;2022-08-11T18:39:05;3.90;;;1.38;;
14369;SDS011;7268;50.792;0.252;2022-08-11T18:41:53;4.25;;;1.50;;
14369;SDS011;7268;50.792;0.252;2022-08-11T18:44:56;8.32;;;1.70;;
14369;SDS011;7268;50.792;0.252;2022-08-11T18:47:43;5.40;;;1.48;;
14369;SDS011;7268;50.792;0.252;2022-08-11T18:50:30;9.20;;;1.70;;
14369;SDS011;7268;50.792;0.252;2022-08-11T18:53:38;5.22;;;1.60;;
14369;SDS011;7268;50.792;0.252;2022-08-11T18:56:24;3.45;;;1.25;;
14369;SDS011;7268;50.792;0.252;2022-08-11T18:59:10;5.43;;;1.70;;
14369;SDS011;7268;50.792;0.252;2022-08-11T19:01:57;5.57;;;1.55;;
14369;SDS011;7268;50.792;0.252;2022-08-11T19:04:43;8.02;;;1.70;;
14369;SDS011;7268;50.792;0.252;2022-08-11T19:07:30;4.43;;;1.73;;
14369;SDS011;7268;50.792;0.252;2022-08-11T19:10:18;4.65;;;2.00;;
14369;SDS011;7268;50.792;0.252;2022-08-11T19:13:06;3.08;;;1.60;;
14369;SDS011;7268;50.792;0.252;2022-08-11T19:15:52;4.00;;;1.98;;
14369;SDS011;7268;50.792;0.252;2022-08-11T19:18:39;4.25;;;2.08;;
14369;SDS011;7268;50.792;0.252;2022-08-11T19:21:26;6.07;;;2.08;;
14369;SDS011;7268;50.792;0.252;2022-08-11T19:24:13;8.82;;;1.83;;
14369;SDS011;7268;50.792;0.252;2022-08-11T19:27:00;9.27;;;1.70;;
14369;SDS011;7268;50.792;0.252;2022-08-11T19:29:47;1.90;;;1.60;;
14369;SDS011;7268;50.792;0.252;2022-08-11T19:32:39;2.83;;;1.40;;
14369;SDS011;7268;50.792;0.252;2022-08-11T19:35:26;2.42;;;1.30;;
14369;SDS011;7268;50.792;0.252;2022-08-11T19:38:13;3.22;;;1.30;;
14369;SDS011;7268;50.792;0.252;2022-08-11T19:40:59;3.30;;;1.55;;
14369;SDS011;7268;50.792;0.252;2022-08-11T19:44:06;4.22;;;1.65;;
14369;SDS011;7268;50.792;0.252;2022-08-11T19:46:53;2.55;;;1.55;;
14369;SDS011;7268;50.792;0.252;2022-08-11T19:49:39;6.03;;;1.40;;
14369;SDS011;7268;50.792;0.252;2022-08-11T19:52:26;7.10;;;1.45;;
14369;SDS011;7268;50.792;0.252;2022-08-11T19:55:13;4.60;;;1.50;;
14369;SDS011;7268;50.792;0.252;2022-08-11T19:58:00;5.97;;;1.50;;
14369;SDS011;7268;50.792;0.252;2022-08-11T20:00:46;3.40;;;1.23;;
14369;SDS011;7268;50.792;0.252;2022-08-11T20:03:32;5.97;;;1.50;;
14369;SDS011;7268;50.792;0.252;2022-08-11T20:06:19;3.40;;;1.40;;
14369;SDS011;7268;50.792;0.252;2022-08-11T20:09:06;2.03;;;1.20;;
14369;SDS011;7268;50.792;0.252;2022-08-11T20:12:14;1.73;;;1.23;;
14369;SDS011;7268;50.792;0.252;2022-08-11T20:15:00;2.17;;;1.20;;